Flight Track Log - Related Links

Times and Time Zones

All times are in EDT time to prevent confusion due to time zone crossing. See the FFT573 flight status page for this flight to view local times or setup timezone preferences in your user account.

Time Position Orientation Groundspeed Altitude Reporting Facility
EDT Latitude Longitude Course Direction KTS MPH feet Rate Location/Type
Sun 07:10:26 PM 39.8333 -104.7500 311° West 182 209 6,600  Level Denver TRACON
Sun 07:11:20 PM 39.8667 -104.8000 311° West 215 247 7,600 1,347 Climbing Denver TRACON
Sun 07:12:04 PM 39.8933 -104.8661 298° West 237 273 8,800 1,657 Climbing Denver Center
Sun 07:13:05 PM 39.9317 -104.9583 298° West 282 325 10,500 2,049 Climbing Denver Center
Sun 07:14:07 PM 39.9389 -105.0817 274° West 317 365 13,000 2,516 Climbing Denver Center
Sun 07:15:09 PM 39.9461 -105.2003 275° West 328 377 15,700 2,323 Climbing Denver Center
Sun 07:16:11 PM 39.9547 -105.3247 275° West 345 397 17,800 2,032 Climbing Denver Center
Sun 07:17:13 PM 39.9622 -105.4664 274° West 367 422 19,900 1,935 Climbing Denver Center
Sun 07:18:15 PM 39.9706 -105.6056 275° West 385 443 21,800 1,935 Climbing Denver Center
Sun 07:19:17 PM 39.9742 -105.7633 272° West 408 470 23,900 1,790 Climbing Denver Center
Sun 07:20:19 PM 39.9717 -105.8969 269° West 401 461 25,500 1,645 Climbing Denver Center
Sun 07:21:21 PM 39.9808 -106.0486 275° West 416 479 27,300 1,597 Climbing Denver Center
Sun 07:22:23 PM 39.9889 -106.2025 274° West 425 489 28,800 1,452 Climbing Denver Center
Sun 07:23:25 PM 39.9992 -106.3928 274° West 440 506 30,300 1,452 Climbing Denver Center
Sun 07:24:27 PM 40.0072 -106.5489 274° West 446 513 31,800 1,512 Climbing Denver Center
Sun 07:25:28 PM 40.0164 -106.7278 274° West 444 511 33,400 1,415 Climbing Denver Center
Sun 07:26:30 PM 40.0231 -106.8822 273° West 445 512 34,700 1,103 Climbing Denver Center
Sun 07:27:44 PM 40.0333 -107.0606 274° West 442 509 35,900 1,007 Climbing Denver Center
Sun 07:28:47 PM 40.0400 -107.2406 273° West 446 513 37,000 1,008 Climbing Denver Center
Sun 07:29:49 PM 40.0472 -107.4186 273° West 441 507 38,000 484 Climbing Denver Center
Sun 07:30:51 PM 40.0536 -107.5717 273° West 441 507 38,000  Level Denver Center
Sun 07:31:53 PM 40.0611 -107.7500 273° West 443 510 38,000  Level Denver Center
Sun 07:32:55 PM 40.0675 -107.9039 273° West 445 512 38,000  Level Denver Center
Sun 07:33:57 PM 40.0753 -108.0833 273° West 446 513 38,000  Level Denver Center
Sun 07:34:59 PM 40.0814 -108.2367 273° West 443 510 38,000  Level Denver Center
Sun 07:36:01 PM 40.0892 -108.4147 273° West 443 510 38,000  Level Denver Center
Sun 07:37:03 PM 40.0958 -108.5650 273° West 438 504 38,000  Level Denver Center
Sun 07:38:05 PM 40.1025 -108.7414 273° West 438 504 38,000  Level Denver Center
Sun 07:39:07 PM 40.1083 -108.8911 273° West 436 502 38,000  Level Denver Center
Sun 07:39:43 PM 40.1125 -108.9914 273° West 435 501 38,000  Level Salt Center
Sun 07:40:44 PM 40.1175 -109.1433 273° West 438 504 38,000  Level Salt Center
Sun 07:41:11 PM 40.1208 -109.2192 273° West 439 505 38,000  Level Denver Center
Sun 07:42:13 PM 40.1261 -109.3953 272° West 438 504 38,000  Level Denver Center
Sun 07:42:47 PM 40.1289 -109.4708 273° West 437 503 38,000  Level Salt Center
Sun 07:43:49 PM 40.1350 -109.6483 273° West 438 504 38,000  Level Salt Center
Sun 07:44:50 PM 40.1397 -109.7994 272° West 436 502 38,000 -244 Level Salt Center
Sun 07:45:52 PM 40.1447 -109.9764 272° West 437 503 37,500 -774 Descending Salt Center
Sun 07:46:54 PM 40.1489 -110.1278 272° West 437 503 36,400 -2,634 Descending Salt Center
Sun 07:47:55 PM 40.1492 -110.2892 270° West 461 531 32,100 -3,317 Descending Salt Center
Sun 07:48:57 PM 40.1464 -110.4786 269° West 468 539 29,600 -2,195 Descending Salt Center
Sun 07:49:58 PM 40.1444 -110.6367 269° West 457 526 27,600 -2,146 Descending Salt Center
Sun 07:51:00 PM 40.1428 -110.8156 269° West 443 510 25,200 -2,098 Descending Salt Center
Sun 07:52:01 PM 40.1403 -110.9664 269° West 428 493 23,300 -1,951 Descending Salt Center
Sun 07:53:03 PM 40.1389 -111.1211 269° West 426 490 21,200 -1,984 Descending Salt Center
Sun 07:54:05 PM 40.1367 -111.2719 269° West 418 481 19,200 -1,756 Descending Salt Center
Sun 07:55:06 PM 40.1344 -111.4158 269° West 404 465 17,600 -1,755 Descending Salt Center
Sun 07:55:51 PM 40.1264 -111.5403 265° West 391 450 16,100 -1,548 Descending Salt Center
Sun 07:56:08 PM 40.1339 -111.5550 304° West 390 449 16,000 -231 Descending Salt Center
Sun 07:57:09 PM 40.1803 -111.6792 296° West 380 437 15,800 -1,317 Descending Salt Center
Sun 07:58:11 PM 40.2742 -111.7803 321° Northwest 365 420 13,300 -1,902 Descending Salt Center
Sun 07:59:12 PM 40.3569 -111.8469 328° Northwest 350 403 11,900 -1,073 Descending Salt Center
Sun 08:00:14 PM 40.4256 -111.9083 326° Northwest 299 344 11,100 -726 Descending Salt Center
Sun 08:01:16 PM 40.4961 -111.9300 347° North 266 306 10,400 -1,059 Descending Salt Center
Sun 08:02:13 PM 40.5667 -111.9419 353° North 249 287 9,000 -1,881 Descending Salt Center
Sun 08:03:14 PM 40.6283 -111.9494 355° North 229 264 6,700 -1,587 Descending Salt Center
Sun 08:04:14 PM 40.6867 -111.9606 352° North 199 229 5,800 -793 Descending Salt Center
Sun 08:05:15 PM 40.7306 -111.9656 355° North 164 189 5,100 -744 Descending Salt Center
Sun 08:06:23 PM 40.7794 -111.9622 North 146 168 4,200 -794 Descending Salt Center
Sun 08:08:00 PM 40.7833 -111.9667 North  Level FlightAware

Login

Don't have an account? Register now (free) for customized features, flight alerts, and more!